createdAt,value
2018-04-26T00:02:16.636Z,8.20
2018-04-26T00:04:44.308Z,8.67
2018-04-26T00:07:11.868Z,9.63
2018-04-26T00:09:39.525Z,7.90
2018-04-26T00:12:07.090Z,10.37
2018-04-26T00:14:34.750Z,10.70
2018-04-26T00:17:02.306Z,9.00
2018-04-26T00:19:29.876Z,9.00
2018-04-26T00:21:57.434Z,8.87
2018-04-26T00:24:24.970Z,11.47
2018-04-26T00:26:52.519Z,10.17
2018-04-26T00:29:20.115Z,9.53
2018-04-26T00:31:47.772Z,11.87
2018-04-26T00:34:16.214Z,11.63
2018-04-26T00:36:43.793Z,10.77
2018-04-26T00:39:11.339Z,11.37
2018-04-26T00:41:39.098Z,11.10
2018-04-26T00:44:06.621Z,12.70
2018-04-26T00:46:34.902Z,11.40
2018-04-26T00:49:02.505Z,12.10
2018-04-26T00:51:42.034Z,12.63
2018-04-26T00:54:09.612Z,11.40
2018-04-26T00:56:37.325Z,11.20
2018-04-26T00:59:04.847Z,11.53
2018-04-26T01:01:32.528Z,9.63
2018-04-26T01:04:00.840Z,11.67
2018-04-26T01:06:28.419Z,12.80
2018-04-26T01:08:56.006Z,12.30
2018-04-26T01:11:23.602Z,12.30
2018-04-26T01:13:51.178Z,14.20
2018-04-26T01:16:18.733Z,11.67
2018-04-26T01:18:46.338Z,12.07
2018-04-26T01:21:13.890Z,12.30
2018-04-26T01:23:41.451Z,12.50
2018-04-26T01:26:09.027Z,11.97
2018-04-26T01:28:37.368Z,15.17
2018-04-26T01:31:04.915Z,13.27
2018-04-26T01:33:32.576Z,13.33
2018-04-26T01:36:00.238Z,13.63
2018-04-26T01:38:27.791Z,14.70
2018-04-26T01:40:55.374Z,11.67
2018-04-26T01:43:22.890Z,12.20
2018-04-26T01:45:51.170Z,13.53
2018-04-26T01:48:19.470Z,13.93
2018-04-26T01:50:47.063Z,15.60
2018-04-26T01:53:15.584Z,14.70
2018-04-26T01:55:43.162Z,15.60
2018-04-26T01:58:10.711Z,15.63
2018-04-26T02:00:38.262Z,15.03
2018-04-26T02:03:06.558Z,14.13
2018-04-26T02:05:34.121Z,19.30
2018-04-26T02:08:01.754Z,15.93
2018-04-26T02:10:29.285Z,15.03
2018-04-26T02:12:56.839Z,15.47
2018-04-26T02:15:24.417Z,15.47
2018-04-26T02:17:52.772Z,18.20
2018-04-26T02:20:20.340Z,17.30
2018-04-26T02:22:48.727Z,19.20
2018-04-26T02:25:17.051Z,19.57
2018-04-26T02:27:44.599Z,20.70
2018-04-26T02:30:12.173Z,19.87
2018-04-26T02:32:39.724Z,19.60
2018-04-26T02:35:07.308Z,19.23
2018-04-26T02:37:34.868Z,21.60
2018-04-26T02:40:02.435Z,19.23
2018-04-26T02:42:29.999Z,21.70
2018-04-26T02:44:57.525Z,19.80
2018-04-26T02:47:25.053Z,18.67
2018-04-26T02:49:53.391Z,18.67
2018-04-26T02:52:21.026Z,17.63
2018-04-26T02:54:48.607Z,18.33
2018-04-26T02:57:16.146Z,16.53
2018-04-26T02:59:43.698Z,15.10
2018-04-26T03:02:11.275Z,16.43
2018-04-26T03:04:38.826Z,15.20
2018-04-26T03:07:06.486Z,15.37
2018-04-26T03:09:34.079Z,16.20
2018-04-26T03:12:01.816Z,16.53
2018-04-26T03:14:29.335Z,14.30
2018-04-26T03:16:57.769Z,14.57
2018-04-26T03:19:25.446Z,13.50
2018-04-26T03:21:53.002Z,13.97
2018-04-26T03:24:20.594Z,14.60
2018-04-26T03:26:48.915Z,12.50
2018-04-26T03:29:16.439Z,11.90
2018-04-26T03:31:44.032Z,12.87
2018-04-26T03:34:11.590Z,12.10
2018-04-26T03:36:39.147Z,11.20
2018-04-26T03:39:06.731Z,10.33
2018-04-26T03:41:34.270Z,11.37
2018-04-26T03:44:01.840Z,13.13
2018-04-26T03:46:29.407Z,10.80
2018-04-26T03:48:57.142Z,11.07
2018-04-26T03:51:24.681Z,11.10
2018-04-26T03:53:52.269Z,12.87
2018-04-26T03:56:19.828Z,11.60
2018-04-26T03:58:47.411Z,11.93
2018-04-26T04:01:26.934Z,12.37
2018-04-26T04:04:06.402Z,14.40
2018-04-26T04:06:33.955Z,13.33
2018-04-26T04:09:01.503Z,13.70
2018-04-26T04:11:29.099Z,13.00
2018-04-26T04:13:57.435Z,14.37
2018-04-26T04:16:24.978Z,15.00
2018-04-26T04:18:52.508Z,15.30
2018-04-26T04:21:20.038Z,15.33
2018-04-26T04:23:49.119Z,14.27
2018-04-26T04:26:16.792Z,16.03
2018-04-26T04:28:44.351Z,15.63
2018-04-26T04:31:13.453Z,15.10
2018-04-26T04:33:41.775Z,16.10
2018-04-26T04:36:09.338Z,16.37
2018-04-26T04:38:37.008Z,17.53
2018-04-26T04:41:04.530Z,18.70
2018-04-26T04:43:32.821Z,19.10
2018-04-26T04:46:00.392Z,21.30
2018-04-26T04:48:27.943Z,21.73
2018-04-26T04:50:55.519Z,20.10
2018-04-26T04:53:23.066Z,19.70
2018-04-26T04:55:50.603Z,19.27
2018-04-26T04:58:18.928Z,20.80
2018-04-26T05:00:46.467Z,18.23
2018-04-26T05:03:13.985Z,18.63
2018-04-26T05:05:42.362Z,19.27
2018-04-26T05:08:10.700Z,18.63
2018-04-26T05:10:38.230Z,19.50
2018-04-26T05:13:05.842Z,22.40
2018-04-26T05:15:34.197Z,21.80
2018-04-26T05:18:01.743Z,23.37
2018-04-26T05:20:29.338Z,20.70
2018-04-26T05:22:56.878Z,20.40
2018-04-26T05:25:24.424Z,23.57
2018-04-26T05:27:51.989Z,20.03
2018-04-26T05:30:19.540Z,20.53
2018-04-26T05:32:47.061Z,19.27
2018-04-26T05:35:15.459Z,18.40
2018-04-26T05:37:42.986Z,18.20
2018-04-26T05:40:11.274Z,17.83
2018-04-26T05:42:39.617Z,16.90
2018-04-26T05:45:07.153Z,17.30
2018-04-26T05:47:34.730Z,18.47
2018-04-26T05:50:03.235Z,16.30
2018-04-26T05:52:31.564Z,17.13
2018-04-26T05:54:59.151Z,17.97
2018-04-26T05:57:26.715Z,17.03
2018-04-26T05:59:54.383Z,17.50
2018-04-26T06:02:21.912Z,16.77
2018-04-26T06:04:49.469Z,19.00
2018-04-26T06:07:16.992Z,16.67
2018-04-26T06:09:44.534Z,16.87
2018-04-26T06:12:12.886Z,16.80
2018-04-26T06:14:40.456Z,15.57
2018-04-26T06:17:08.770Z,16.27
2018-04-26T06:19:36.454Z,16.10
2018-04-26T06:22:04.121Z,15.73
2018-04-26T06:24:31.655Z,15.40
2018-04-26T06:26:59.223Z,14.60
2018-04-26T06:29:26.893Z,13.20
2018-04-26T06:31:54.426Z,13.50
2018-04-26T06:34:22.753Z,14.13
2018-04-26T06:36:50.366Z,12.80
2018-04-26T06:39:17.900Z,13.30
2018-04-26T06:41:45.460Z,14.37
2018-04-26T06:44:13.059Z,13.57
2018-04-26T06:46:40.627Z,13.80
2018-04-26T06:49:08.429Z,11.77
2018-04-26T06:51:36.103Z,12.17
2018-04-26T06:54:04.479Z,13.60
2018-04-26T06:56:33.558Z,11.17
2018-04-26T06:59:01.128Z,10.60
2018-04-26T07:01:30.167Z,11.37
2018-04-26T07:03:57.770Z,10.30
2018-04-26T07:06:25.333Z,10.90
2018-04-26T07:08:52.891Z,10.53
2018-04-26T07:11:20.451Z,8.70
2018-04-26T07:13:47.986Z,9.37
2018-04-26T07:16:15.577Z,9.80
2018-04-26T07:18:43.954Z,10.63
2018-04-26T07:21:11.511Z,11.27
2018-04-26T07:23:39.177Z,9.83
2018-04-26T07:26:07.555Z,7.73
2018-04-26T07:28:36.597Z,7.60
2018-04-26T07:31:04.161Z,8.27
2018-04-26T07:33:31.716Z,7.37
2018-04-26T07:35:59.263Z,6.70
2018-04-26T07:38:26.790Z,5.60
2018-04-26T07:40:54.330Z,5.43
2018-04-26T07:43:21.875Z,5.57
2018-04-26T07:45:49.414Z,6.00
2018-04-26T07:48:16.975Z,5.43
2018-04-26T07:50:44.493Z,5.53
2018-04-26T07:53:12.132Z,5.60
2018-04-26T07:55:39.633Z,5.53
2018-04-26T07:58:07.191Z,5.43
2018-04-26T08:00:34.781Z,5.77
2018-04-26T08:03:02.338Z,4.00
2018-04-26T08:05:29.884Z,5.77
2018-04-26T08:07:57.465Z,4.17
2018-04-26T08:10:24.982Z,3.33
2018-04-26T08:12:53.394Z,2.83
2018-04-26T08:15:20.995Z,3.40
2018-04-26T08:17:49.363Z,3.13
2018-04-26T08:20:16.945Z,3.50
2018-04-26T08:22:45.287Z,3.00
2018-04-26T08:25:12.866Z,3.27
2018-04-26T08:27:40.417Z,2.60
2018-04-26T08:30:07.980Z,1.73
2018-04-26T08:32:35.553Z,1.80
2018-04-26T08:35:03.078Z,1.50
2018-04-26T08:37:30.722Z,1.30
2018-04-26T08:39:58.306Z,1.60
2018-04-26T08:42:25.845Z,1.53
2018-04-26T08:44:53.440Z,1.80
2018-04-26T08:47:20.959Z,2.20
2018-04-26T08:49:48.475Z,2.60
2018-04-26T08:52:16.190Z,3.23
2018-04-26T08:54:43.692Z,3.90
2018-04-26T08:57:12.017Z,4.00
2018-04-26T08:59:39.557Z,2.90
2018-04-26T09:02:07.129Z,2.87
2018-04-26T09:04:34.706Z,3.23
2018-04-26T09:07:02.287Z,2.60
2018-04-26T09:09:29.917Z,3.10
2018-04-26T09:11:57.500Z,3.10
2018-04-26T09:14:25.046Z,3.30
2018-04-26T09:16:52.594Z,3.63
2018-04-26T09:19:20.188Z,3.30
2018-04-26T09:21:47.740Z,3.53
2018-04-26T09:24:15.427Z,3.07
2018-04-26T09:26:43.048Z,2.50
2018-04-26T09:29:11.322Z,1.80
2018-04-26T09:31:38.926Z,1.40
2018-04-26T09:34:06.581Z,1.20
2018-04-26T09:36:34.178Z,1.23
2018-04-26T09:39:01.791Z,1.60
2018-04-26T09:41:29.422Z,1.43
2018-04-26T09:43:57.011Z,1.70
2018-04-26T09:46:24.547Z,1.43
2018-04-26T09:48:52.070Z,2.00
2018-04-26T09:51:20.423Z,1.60
2018-04-26T09:53:47.950Z,1.90
2018-04-26T09:56:15.508Z,2.13
2018-04-26T09:58:43.038Z,1.93
2018-04-26T10:01:10.588Z,1.73
2018-04-26T10:03:38.862Z,1.50
2018-04-26T10:06:26.909Z,2.27
2018-04-26T10:08:54.544Z,2.30
2018-04-26T10:11:22.021Z,2.40
2018-04-26T10:13:49.586Z,2.27
2018-04-26T10:16:17.124Z,2.37
2018-04-26T10:18:45.419Z,2.77
2018-04-26T10:21:13.016Z,2.63
2018-04-26T10:23:40.588Z,1.60
2018-04-26T10:26:08.151Z,2.13
2018-04-26T10:28:35.777Z,2.20
2018-04-26T10:31:03.367Z,1.73
2018-04-26T10:33:30.898Z,2.03
2018-04-26T10:35:58.473Z,2.10
2018-04-26T10:38:26.042Z,2.07
2018-04-26T10:40:53.665Z,2.23
2018-04-26T10:43:21.360Z,2.70
2018-04-26T10:45:48.911Z,3.40
2018-04-26T10:48:16.520Z,3.30
2018-04-26T10:50:44.966Z,2.20
2018-04-26T10:53:12.603Z,2.37
2018-04-26T10:55:40.204Z,2.90
2018-04-26T10:58:07.821Z,2.40
2018-04-26T11:00:35.351Z,2.27
2018-04-26T11:03:03.664Z,2.27
2018-04-26T11:05:31.218Z,1.97
2018-04-26T11:07:58.794Z,2.10
2018-04-26T11:10:26.368Z,1.97
2018-04-26T11:12:53.925Z,1.90
2018-04-26T11:15:21.451Z,1.87
2018-04-26T11:17:49.009Z,1.50
2018-04-26T11:20:16.561Z,1.80
2018-04-26T11:22:44.088Z,2.00
2018-04-26T11:25:12.424Z,2.20
2018-04-26T11:27:39.969Z,3.20
2018-04-26T11:30:07.557Z,2.90
2018-04-26T11:32:35.106Z,3.63
2018-04-26T11:35:02.717Z,3.00
2018-04-26T11:37:30.315Z,3.50
2018-04-26T11:39:57.838Z,3.00
2018-04-26T11:42:25.451Z,3.03
2018-04-26T11:44:53.094Z,3.80
2018-04-26T11:47:20.650Z,3.20
2018-04-26T11:49:48.196Z,2.73
2018-04-26T11:52:15.801Z,3.30
2018-04-26T11:54:43.325Z,3.43
2018-04-26T11:57:10.919Z,4.17
2018-04-26T11:59:38.509Z,4.00
2018-04-26T12:02:06.797Z,4.37
2018-04-26T12:04:35.260Z,3.73
2018-04-26T12:07:03.577Z,3.17
2018-04-26T12:09:31.179Z,2.80
2018-04-26T12:11:59.527Z,3.00
2018-04-26T12:14:27.107Z,2.60
2018-04-26T12:16:54.665Z,2.00
2018-04-26T12:19:22.212Z,1.60
2018-04-26T12:21:49.762Z,1.60
2018-04-26T12:24:17.302Z,1.83
2018-04-26T12:26:44.817Z,1.10
2018-04-26T12:29:13.219Z,1.40
2018-04-26T12:31:40.702Z,1.63
2018-04-26T12:34:08.266Z,1.20
2018-04-26T12:36:35.854Z,1.47
2018-04-26T12:39:03.455Z,1.23
2018-04-26T12:41:31.749Z,1.00
2018-04-26T12:43:59.319Z,1.13
2018-04-26T12:46:26.903Z,1.20
2018-04-26T12:48:54.440Z,1.67
2018-04-26T12:51:22.001Z,1.60
2018-04-26T12:53:49.570Z,1.47
2018-04-26T12:56:17.139Z,1.67
2018-04-26T12:58:44.658Z,1.67
2018-04-26T13:01:12.237Z,1.77
2018-04-26T13:03:39.809Z,1.73
2018-04-26T13:06:07.363Z,1.90
2018-04-26T13:08:34.942Z,2.37
2018-04-26T13:11:02.476Z,2.90
2018-04-26T13:13:30.042Z,2.63
2018-04-26T13:15:57.607Z,2.50
2018-04-26T13:18:25.230Z,1.90
2018-04-26T13:20:52.838Z,2.87
2018-04-26T13:23:20.512Z,2.87
2018-04-26T13:25:48.033Z,2.23
2018-04-26T13:28:15.602Z,2.57
2018-04-26T13:30:43.146Z,2.80
2018-04-26T13:33:10.912Z,2.70
2018-04-26T13:35:38.508Z,2.80
2018-04-26T13:38:06.051Z,2.30
2018-04-26T13:40:33.620Z,2.53
2018-04-26T13:43:01.152Z,2.37
2018-04-26T13:45:28.705Z,2.50
2018-04-26T13:47:56.262Z,2.00
2018-04-26T13:50:23.789Z,2.23
2018-04-26T13:52:52.066Z,3.30
2018-04-26T13:55:20.519Z,2.60
2018-04-26T13:57:48.851Z,2.10
2018-04-26T14:00:16.459Z,2.83
2018-04-26T14:02:44.037Z,3.00
2018-04-26T14:05:12.351Z,2.60
2018-04-26T14:07:39.947Z,3.03
2018-04-26T14:10:07.503Z,2.23
2018-04-26T14:12:35.061Z,1.87
2018-04-26T14:15:02.597Z,1.37
2018-04-26T14:17:30.244Z,2.13
2018-04-26T14:19:59.254Z,1.83
2018-04-26T14:22:26.805Z,2.00
2018-04-26T14:24:54.347Z,1.60
2018-04-26T14:27:21.917Z,1.37
2018-04-26T14:29:49.507Z,1.20
2018-04-26T14:32:17.076Z,1.30
2018-04-26T14:34:44.627Z,1.47
2018-04-26T14:37:12.320Z,1.60
2018-04-26T14:39:39.766Z,1.20
2018-04-26T14:42:07.329Z,1.33
2018-04-26T14:44:36.580Z,1.27
2018-04-26T14:47:04.122Z,1.63
2018-04-26T14:49:31.642Z,2.33
2018-04-26T14:51:59.222Z,1.57
2018-04-26T14:54:27.560Z,1.47
2018-04-26T14:56:55.136Z,1.43
2018-04-26T14:59:22.723Z,1.20
2018-04-26T15:01:51.052Z,1.60
2018-04-26T15:04:18.625Z,1.80
2018-04-26T15:06:46.216Z,1.20
2018-04-26T15:09:14.529Z,1.50
2018-04-26T15:11:42.097Z,1.73
2018-04-26T15:14:09.679Z,1.53
2018-04-26T15:16:37.310Z,2.27
2018-04-26T15:19:04.931Z,1.90
2018-04-26T15:21:33.249Z,2.80
2018-04-26T15:24:00.834Z,1.80
2018-04-26T15:26:28.367Z,2.50
2018-04-26T15:28:55.959Z,2.70
2018-04-26T15:31:23.543Z,3.10
2018-04-26T15:33:51.854Z,2.73
2018-04-26T15:36:19.423Z,2.67
2018-04-26T15:38:47.086Z,2.30
2018-04-26T15:41:14.736Z,2.10
2018-04-26T15:43:42.328Z,2.90
2018-04-26T15:46:09.900Z,2.40
2018-04-26T15:48:38.986Z,2.13
2018-04-26T15:51:06.632Z,2.30
2018-04-26T15:53:46.135Z,2.90
2018-04-26T15:59:32.007Z,2.87
2018-04-26T16:02:28.750Z,2.57
2018-04-26T16:05:13.865Z,2.80
2018-04-26T16:07:58.951Z,1.60
2018-04-26T16:10:44.102Z,1.30
2018-04-26T16:13:30.011Z,1.40
2018-04-26T16:19:32.999Z,1.20
2018-04-26T16:22:18.967Z,1.33
2018-04-26T16:24:58.352Z,1.20
2018-04-26T16:27:43.793Z,1.53
2018-04-26T16:33:37.610Z,1.70
2018-04-26T16:39:13.898Z,1.83
2018-04-26T16:41:41.480Z,1.90
2018-04-26T16:44:09.036Z,2.57
2018-04-26T16:46:36.590Z,2.20
2018-04-26T16:49:04.239Z,2.27
2018-04-26T16:51:31.838Z,2.23
2018-04-26T16:53:59.373Z,2.20
2018-04-26T16:56:27.028Z,2.17
2018-04-26T16:58:54.548Z,2.27
2018-04-26T17:01:22.881Z,2.50
2018-04-26T17:03:50.434Z,2.80
2018-04-26T17:06:17.987Z,2.07
2018-04-26T17:08:45.735Z,3.00
2018-04-26T17:11:13.342Z,2.37
2018-04-26T17:13:40.883Z,2.40
2018-04-26T17:16:08.550Z,2.47
2018-04-26T17:18:36.155Z,2.30
2018-04-26T17:21:04.589Z,2.50
2018-04-26T17:23:32.878Z,2.47
2018-04-26T17:26:00.463Z,2.47
2018-04-26T17:28:28.021Z,2.20
2018-04-26T17:33:47.201Z,2.97
2018-04-26T17:36:14.761Z,2.87
2018-04-26T17:38:43.076Z,2.97
2018-04-26T17:41:10.640Z,3.00
2018-04-26T17:43:38.207Z,3.30
2018-04-26T17:46:05.784Z,3.03
2018-04-26T17:48:33.312Z,2.77
2018-04-26T17:51:00.879Z,3.10
2018-04-26T17:53:28.494Z,3.50
2018-04-26T17:55:55.998Z,3.43
2018-04-26T17:58:23.634Z,4.40
2018-04-26T18:00:51.939Z,3.60
2018-04-26T18:03:19.509Z,4.00
2018-04-26T18:05:47.161Z,3.37
2018-04-26T18:08:14.738Z,4.90
2018-04-26T18:10:42.268Z,12.70
2018-04-26T18:13:09.823Z,12.27
2018-04-26T18:15:37.589Z,7.70
2018-04-26T18:18:05.167Z,4.60
2018-04-26T18:20:32.737Z,4.30
2018-04-26T18:23:00.303Z,3.80
2018-04-26T18:25:27.933Z,5.00
2018-04-26T18:27:55.489Z,3.80
2018-04-26T18:30:23.059Z,3.90
2018-04-26T18:32:50.632Z,4.27
2018-04-26T18:35:18.300Z,3.63
2018-04-26T18:37:45.854Z,3.90
2018-04-26T18:40:13.379Z,3.97
2018-04-26T18:42:40.950Z,4.43
2018-04-26T18:45:08.547Z,3.67
2018-04-26T18:47:36.068Z,4.00
2018-04-26T18:50:03.655Z,4.20
2018-04-26T18:52:31.210Z,3.77
2018-04-26T18:54:58.719Z,4.03
2018-04-26T18:57:27.127Z,4.37
2018-04-26T18:59:54.647Z,3.70
2018-04-26T19:02:23.009Z,4.30
2018-04-26T19:04:50.522Z,4.40
2018-04-26T19:07:18.115Z,6.40
2018-04-26T19:09:45.674Z,4.93
2018-04-26T19:12:13.322Z,3.93
2018-04-26T19:14:40.912Z,2.53
2018-04-26T19:17:08.485Z,3.00
2018-04-26T19:19:36.802Z,2.93
2018-04-26T19:22:04.357Z,3.27
2018-04-26T19:24:31.911Z,2.80
2018-04-26T19:26:59.436Z,2.70
2018-04-26T19:29:27.791Z,2.40
2018-04-26T19:31:55.366Z,2.13
2018-04-26T19:34:23.700Z,2.60
2018-04-26T19:36:51.219Z,2.30
2018-04-26T19:39:18.840Z,1.87
2018-04-26T19:41:46.424Z,1.60
2018-04-26T19:44:14.744Z,1.93
2018-04-26T19:46:42.391Z,1.73
2018-04-26T19:49:09.962Z,1.73
2018-04-26T19:51:37.535Z,1.80
2018-04-26T19:54:05.055Z,2.07
2018-04-26T19:56:33.501Z,1.70
2018-04-26T19:59:01.060Z,2.20
2018-04-26T20:01:28.613Z,2.00
2018-04-26T20:03:56.173Z,1.70
2018-04-26T20:06:23.707Z,2.07
2018-04-26T20:08:51.326Z,2.00
2018-04-26T20:11:18.871Z,2.10
2018-04-26T20:13:46.423Z,2.80
2018-04-26T20:16:14.069Z,2.10
2018-04-26T20:18:41.602Z,2.70
2018-04-26T20:21:09.193Z,2.70
2018-04-26T20:23:38.236Z,2.80
2018-04-26T20:26:05.815Z,2.60
2018-04-26T20:28:33.414Z,3.13
2018-04-26T20:31:01.060Z,2.53
2018-04-26T20:33:28.611Z,3.30
2018-04-26T20:35:56.274Z,4.00
2018-04-26T20:38:23.959Z,2.60
2018-04-26T20:40:51.512Z,2.63
2018-04-26T20:43:19.073Z,2.70
2018-04-26T20:45:46.635Z,3.07
2018-04-26T20:48:26.058Z,3.10
2018-04-26T20:50:53.714Z,4.00
2018-04-26T20:53:21.254Z,2.47
2018-04-26T20:55:48.839Z,3.33
2018-04-26T20:58:16.490Z,3.30
2018-04-26T21:00:44.075Z,3.23
2018-04-26T21:03:11.810Z,3.80
2018-04-26T21:05:39.434Z,3.27
2018-04-26T21:08:07.079Z,3.00
2018-04-26T21:10:35.435Z,3.53
2018-04-26T21:13:03.137Z,2.80
2018-04-26T21:15:30.784Z,3.47
2018-04-26T21:17:59.155Z,4.00
2018-04-26T21:20:27.548Z,4.80
2018-04-26T21:22:55.191Z,3.90
2018-04-26T21:25:23.543Z,3.60
2018-04-26T21:27:51.131Z,4.20
2018-04-26T21:30:18.783Z,4.63
2018-04-26T21:32:46.342Z,4.10
2018-04-26T21:35:14.741Z,4.10
2018-04-26T21:37:43.100Z,4.37
2018-04-26T21:40:11.499Z,3.73
2018-04-26T21:42:39.851Z,4.33
2018-04-26T21:45:07.507Z,3.20
2018-04-26T21:47:35.142Z,4.00
2018-04-26T21:50:08.408Z,4.07
2018-04-26T21:52:41.782Z,4.13
2018-04-26T21:55:15.749Z,3.90
2018-04-26T21:57:49.149Z,4.40
2018-04-26T22:00:22.539Z,3.90
2018-04-26T22:02:49.658Z,4.13
2018-04-26T22:05:18.190Z,3.40
2018-04-26T22:07:45.756Z,4.93
2018-04-26T22:10:13.405Z,4.50
2018-04-26T22:12:40.991Z,4.27
2018-04-26T22:15:09.314Z,4.50
2018-04-26T22:17:36.914Z,4.57
2018-04-26T22:20:04.498Z,4.77
2018-04-26T22:22:32.810Z,5.10
2018-04-26T22:25:00.382Z,5.00
2018-04-26T22:27:27.939Z,4.20
2018-04-26T22:29:55.556Z,4.07
2018-04-26T22:32:23.878Z,4.27
2018-04-26T22:34:51.509Z,4.67
2018-04-26T22:37:19.083Z,5.20
2018-04-26T22:39:46.676Z,4.63
2018-04-26T22:42:14.362Z,5.10
2018-04-26T22:44:41.958Z,4.63
2018-04-26T22:47:09.538Z,4.83
2018-04-26T22:49:37.100Z,4.80
2018-04-26T22:52:04.704Z,5.37
2018-04-26T22:54:33.048Z,4.27
2018-04-26T22:57:00.660Z,5.73
2018-04-26T22:59:28.996Z,5.73
2018-04-26T23:01:56.625Z,6.77
2018-04-26T23:04:24.223Z,6.30
2018-04-26T23:06:51.801Z,5.17
2018-04-26T23:09:20.175Z,6.07
2018-04-26T23:11:47.766Z,5.60
2018-04-26T23:14:15.388Z,5.20
2018-04-26T23:16:42.983Z,5.33
2018-04-26T23:19:10.593Z,6.37
2018-04-26T23:21:38.175Z,6.00
2018-04-26T23:24:06.547Z,5.53
2018-04-26T23:26:34.143Z,5.50
2018-04-26T23:29:01.752Z,6.40
2018-04-26T23:31:29.484Z,5.73
2018-04-26T23:33:57.060Z,6.13
2018-04-26T23:36:24.620Z,5.37
2018-04-26T23:38:52.212Z,5.13
2018-04-26T23:41:19.815Z,5.23
2018-04-26T23:43:47.414Z,5.80
2018-04-26T23:46:15.014Z,5.07
2018-04-26T23:48:43.352Z,5.77
2018-04-26T23:51:10.951Z,5.57
2018-04-26T23:53:38.609Z,6.23
2018-04-26T23:56:06.941Z,6.73
2018-04-26T23:58:34.619Z,6.37
